»·PEaware :: DAL2561 KSBA-KJAC

DAL2561 :: KSBA-KJAC

FLIGHT INFORMATION

Flight Status: Arrived
Operator:
Delta Air Lines
More flights by this operator :: More flights under this callsign
Pilot: Max W. (2591)
Aircraft: BOEING 757-300
(B753)
More flights by this aircraft type
Origin: KSBA Santa Barbara Mun
United States
Destination: KJAC Jackson Hole
United States
More flights between these airports :: More routes between these airports
Route: +MISHN3 NNAVY LAS Q70 BLIPP Q842 WINEN MLF J9 FFU FBR BPI JAC
File this flight plan on PilotEdge
Remarks: RMK / SIMBRIEF
Altitude:
(Current/Filed)
35,000ft
Speed:
(Current/Filed)
450kts
Departed: 25-Nov-20 06:35 PM
Arrived: 25-Nov-20 08:19 PM
Distance/Time
Traveled:
694nm/1:44
Distance/Time
To Go:
Arrived

Flight Plot

Page will automatically refresh every two minutes.

Flight plan parsing failed; only flown route is shown


Map Options




Map Legend


Flown Route
Filed Route
Departure Airport
Arrival Airport
Navaid (VOR, NDB)
Fix

Horizontal Profiles

Position Reports

Time Latitude Longitude Heading Altitude Ground
Speed
25-Nov-20 18:14 34.424913 -119.837277 115 25ft 0kts
25-Nov-20 18:15 34.424913 -119.837277 115 25ft 0kts
25-Nov-20 18:16 34.424913 -119.837277 115 25ft 0kts
25-Nov-20 18:17 34.424913 -119.837277 115 24ft 0kts
25-Nov-20 18:18 34.424913 -119.837277 115 24ft 0kts
25-Nov-20 18:19 34.424913 -119.837277 115 24ft 0kts
25-Nov-20 18:20 34.424913 -119.837277 115 24ft 0kts
25-Nov-20 18:21 34.424913 -119.837277 115 24ft 0kts
25-Nov-20 18:22 34.424913 -119.837277 115 24ft 0kts
25-Nov-20 18:23 34.424913 -119.837277 115 24ft 0kts
25-Nov-20 18:24 34.424913 -119.837277 115 24ft 0kts
25-Nov-20 18:25 34.424913 -119.837277 115 24ft 0kts
25-Nov-20 18:26 34.424922 -119.837299 115 24ft 2kts
25-Nov-20 18:27 34.424560 -119.837647 344 25ft 2kts
25-Nov-20 18:28 34.424430 -119.837611 350 24ft 0kts
25-Nov-20 18:29 34.424430 -119.837611 350 24ft 0kts
25-Nov-20 18:30 34.425514 -119.837978 345 24ft 5kts
25-Nov-20 18:31 34.426750 -119.837169 87 24ft 8kts
25-Nov-20 18:32 34.427105 -119.834780 11 24ft 7kts
25-Nov-20 18:34 34.427889 -119.835159 270 24ft 0kts
25-Nov-20 18:35 34.427849 -119.837900 268 24ft 58kts
25-Nov-20 18:36 34.426418 -119.884877 266 987ft 180kts
25-Nov-20 18:37 34.393797 -119.935486 185 2718ft 254kts
25-Nov-20 18:38 34.327007 -119.913726 135 6464ft 275kts
25-Nov-20 18:39 34.270757 -119.846223 134 10229ft 297kts
25-Nov-20 18:40 34.208238 -119.757380 110 12291ft 386kts
25-Nov-20 18:41 34.197010 -119.624886 92 15821ft 413kts
25-Nov-20 18:42 34.197585 -119.481766 86 18891ft 439kts
25-Nov-20 18:43 34.203550 -119.330929 87 21630ft 461kts
25-Nov-20 18:44 34.209113 -119.185657 88 23774ft 480kts
25-Nov-20 18:45 34.225587 -119.030578 76 25854ft 495kts
25-Nov-20 18:46 34.258305 -118.865844 77 27787ft 509kts
25-Nov-20 18:47 34.291824 -118.696859 77 29474ft 522kts
25-Nov-20 18:48 34.325711 -118.524776 77 31299ft 525kts
25-Nov-20 18:49 34.359165 -118.353567 77 33185ft 520kts
25-Nov-20 18:49 34.386611 -118.212025 78 34401ft 517kts
25-Nov-20 18:51 34.427720 -118.015046 68 35128ft 515kts
25-Nov-20 18:52 34.488287 -117.857067 65 35105ft 518kts
25-Nov-20 18:52 34.539511 -117.724871 65 35102ft 519kts
25-Nov-20 18:54 34.611186 -117.539200 65 35104ft 521kts
25-Nov-20 18:54 34.662357 -117.406021 65 35107ft 523kts
25-Nov-20 18:56 34.733031 -117.221166 66 35098ft 524kts
25-Nov-20 18:56 34.784318 -117.086377 66 35088ft 524kts
25-Nov-20 18:57 34.845308 -116.925358 66 35066ft 525kts
25-Nov-20 18:58 34.906582 -116.763588 63 35042ft 527kts
25-Nov-20 18:59 34.997978 -116.624640 46 35045ft 528kts
25-Nov-20 19:00 35.097175 -116.492678 45 35046ft 529kts
25-Nov-20 19:01 35.185728 -116.374674 45 35040ft 531kts
25-Nov-20 19:02 35.283631 -116.243730 46 35031ft 532kts
25-Nov-20 19:03 35.383574 -116.109532 46 35036ft 534kts
25-Nov-20 19:04 35.483907 -115.974294 46 35051ft 536kts
25-Nov-20 19:05 35.584382 -115.838312 46 35057ft 537kts
25-Nov-20 19:06 35.684668 -115.702034 46 35060ft 537kts
25-Nov-20 19:07 35.784902 -115.565273 46 35062ft 537kts
25-Nov-20 19:08 35.884827 -115.428419 46 35056ft 536kts
25-Nov-20 19:09 35.979022 -115.298885 46 35031ft 535kts
25-Nov-20 19:10 36.079781 -115.160941 41 35045ft 544kts
25-Nov-20 19:11 36.187094 -115.044316 38 35030ft 541kts
25-Nov-20 19:12 36.300564 -114.921735 38 35035ft 541kts
25-Nov-20 19:13 36.413817 -114.798934 37 35037ft 541kts
25-Nov-20 19:14 36.527755 -114.674992 38 35045ft 542kts
25-Nov-20 19:15 36.640871 -114.551403 37 35044ft 542kts
25-Nov-20 19:16 36.759325 -114.437010 27 35054ft 538kts
25-Nov-20 19:17 36.883410 -114.339268 27 35062ft 540kts
25-Nov-20 19:18 37.010770 -114.238930 27 35082ft 541kts
25-Nov-20 19:19 37.134905 -114.140748 27 35075ft 544kts
25-Nov-20 19:20 37.262851 -114.039170 27 35077ft 546kts
25-Nov-20 19:21 37.391181 -113.936887 26 35082ft 547kts
25-Nov-20 19:22 37.520088 -113.833699 26 35084ft 549kts
25-Nov-20 19:23 37.648981 -113.730096 26 35084ft 551kts
25-Nov-20 19:24 37.777939 -113.625998 26 35074ft 549kts
25-Nov-20 19:25 37.908246 -113.520383 27 35076ft 560kts
25-Nov-20 19:26 38.028260 -113.392220 37 35081ft 568kts
25-Nov-20 19:27 38.141057 -113.264187 37 35054ft 564kts
25-Nov-20 19:28 38.257765 -113.130921 38 35058ft 566kts
25-Nov-20 19:29 38.372865 -113.010686 22 35058ft 555kts
25-Nov-20 19:30 38.512064 -112.931092 15 35050ft 547kts
25-Nov-20 19:31 38.652510 -112.854322 15 35056ft 548kts
25-Nov-20 19:32 38.792914 -112.777429 15 35062ft 549kts
25-Nov-20 19:33 38.933393 -112.700172 15 35066ft 550kts
25-Nov-20 19:34 39.074586 -112.622188 14 35069ft 552kts
25-Nov-20 19:35 39.186889 -112.559923 14 35058ft 553kts
25-Nov-20 19:36 39.327944 -112.481402 14 35063ft 553kts
25-Nov-20 19:37 39.469067 -112.402491 14 35067ft 553kts
25-Nov-20 19:38 39.607718 -112.324639 14 35070ft 555kts
25-Nov-20 19:39 39.749762 -112.244492 14 35088ft 554kts
25-Nov-20 19:40 39.891550 -112.164160 14 35092ft 555kts
25-Nov-20 19:41 40.033017 -112.082720 14 35096ft 556kts
25-Nov-20 19:42 40.170361 -112.002112 14 35079ft 556kts
25-Nov-20 19:43 40.305196 -111.898396 38 35075ft 579kts
25-Nov-20 19:44 40.418825 -111.747031 41 35041ft 581kts
25-Nov-20 19:45 40.531322 -111.595015 41 35044ft 579kts
25-Nov-20 19:46 40.643821 -111.442158 41 35048ft 579kts
25-Nov-20 19:47 40.753152 -111.292851 42 35060ft 578kts
25-Nov-20 19:48 40.864960 -111.139366 42 35084ft 579kts
25-Nov-20 19:49 40.976667 -110.985219 42 35076ft 579kts
25-Nov-20 19:50 41.087916 -110.830881 42 35065ft 579kts
25-Nov-20 19:51 41.195410 -110.681029 42 35056ft 580kts
25-Nov-20 19:52 41.307077 -110.524533 42 35061ft 582kts
25-Nov-20 19:53 41.437078 -110.406695 9 35058ft 551kts
25-Nov-20 19:54 41.583406 -110.369854 358 35050ft 535kts
25-Nov-20 19:55 41.725669 -110.334163 359 35032ft 539kts
25-Nov-20 19:56 41.873131 -110.295831 359 35035ft 539kts
25-Nov-20 19:57 42.020388 -110.257284 359 35030ft 539kts
25-Nov-20 19:58 42.160301 -110.220495 0 35009ft 541kts
25-Nov-20 19:59 42.307885 -110.181473 0 35011ft 540kts
25-Nov-20 20:00 42.455416 -110.142299 0 35014ft 539kts
25-Nov-20 20:01 42.599825 -110.129900 335 34512ft 500kts
25-Nov-20 20:02 42.724043 -110.194482 323 32728ft 475kts
25-Nov-20 20:03 42.844878 -110.265635 324 30923ft 467kts
25-Nov-20 20:04 42.962810 -110.335592 325 29112ft 455kts
25-Nov-20 20:05 43.077033 -110.403665 326 27302ft 441kts
25-Nov-20 20:06 43.181712 -110.466304 328 25139ft 424kts
25-Nov-20 20:07 43.290432 -110.519469 355 22856ft 425kts
25-Nov-20 20:08 43.405072 -110.480538 11 20736ft 418kts
25-Nov-20 20:09 43.514707 -110.439420 11 18714ft 399kts
25-Nov-20 20:10 43.612670 -110.405616 5 14522ft 371kts
25-Nov-20 20:11 43.683135 -110.452273 292 13732ft 253kts
25-Nov-20 20:12 43.697797 -110.541719 284 12506ft 220kts
25-Nov-20 20:13 43.715035 -110.612349 287 10485ft 197kts
25-Nov-20 20:14 43.718243 -110.678487 221 8386ft 172kts
25-Nov-20 20:15 43.678767 -110.702799 197 7761ft 144kts
25-Nov-20 20:16 43.640691 -110.721460 197 6985ft 142kts
25-Nov-20 20:17 43.605547 -110.738630 198 6432ft 87kts
25-Nov-20 20:18 43.599163 -110.740218 48 6431ft 5kts
25-Nov-20 20:19 43.601250 -110.739123 18 6431ft 8kts
25-Nov-20 20:20 43.603231 -110.737912 29 6431ft 7kts
25-Nov-20 20:21 43.603473 -110.737167 107 6431ft 0kts

Navigation Log

Ident Type
Flight plan parsing failed, navigation log unavailable